Time;durP1;ratioP1;P1;durP2;ratioP2;P2;SDS_P1;SDS_P2;PMS_P1;PMS_P2;Temp;Humidity;BMP_temperature;BMP_pressure;BME280_temperature;BME280_humidity;BME280_pressure;Samples;Min_cycle;Max_cycle;Signal;HPM_P1;HPM_P2
2022/10/15 00:01:13;;;;;;;13.07;8.80;;;14.40;99.90;;;;;;5114155;28;20452;-62
2022/10/15 00:03:42;;;;;;;9.87;8.87;;;14.40;99.90;;;;;;5113993;28;20930;-62
2022/10/15 00:06:11;;;;;;;10.53;9.27;;;14.40;99.90;;;;;;5114329;28;20445;-62
2022/10/15 00:08:39;;;;;;;10.60;9.50;;;14.40;99.90;;;;;;5114277;28;20461;-62
2022/10/15 00:11:09;;;;;;;11.63;9.73;;;14.40;99.90;;;;;;5114400;28;20446;-62
2022/10/15 00:13:36;;;;;;;12.37;11.10;;;14.40;99.90;;;;;;5114011;28;20944;-62
2022/10/15 00:16:04;;;;;;;13.40;10.40;;;14.40;99.90;;;;;;5113902;28;20499;-63
2022/10/15 00:18:32;;;;;;;13.20;11.20;;;14.40;99.90;;;;;;5113812;28;20466;-61
2022/10/15 00:21:00;;;;;;;12.77;10.70;;;14.30;99.90;;;;;;5113698;28;20437;-61
2022/10/15 00:23:26;;;;;;;13.13;11.37;;;14.30;99.90;;;;;;5113547;28;20441;-61
2022/10/15 00:26:05;;;;;;;14.17;12.43;;;14.30;99.90;;;;;;5115235;28;20953;-62
2022/10/15 00:28:32;;;;;;;13.83;11.93;;;14.20;99.90;;;;;;5117576;28;20995;-62
2022/10/15 00:31:04;;;;;;;15.87;13.80;;;14.20;99.90;;;;;;5118713;28;20437;-62
2022/10/15 00:33:33;;;;;;;14.80;12.67;;;14.10;99.90;;;;;;5117891;28;20959;-62
2022/10/15 00:36:01;;;;;;;15.50;12.87;;;14.10;99.90;;;;;;5118102;28;20484;-62
2022/10/15 00:38:28;;;;;;;20.27;14.60;;;14.10;99.90;;;;;;5118069;28;20815;-62
2022/10/15 00:40:55;;;;;;;17.63;13.00;;;14.00;99.90;;;;;;5118762;28;20441;-62
2022/10/15 00:43:43;;;;;;;15.07;13.47;;;13.90;99.90;;;;;;5118352;28;20629;-61
2022/10/15 00:46:18;;;;;;;17.10;13.60;;;13.90;99.90;;;;;;5118722;28;20871;-61
2022/10/15 00:48:52;;;;;;;17.60;14.77;;;13.80;99.90;;;;;;5118177;28;20465;-61
2022/10/15 00:51:20;;;;;;;20.70;14.40;;;13.70;99.90;;;;;;5118096;28;20432;-62
2022/10/15 00:53:49;;;;;;;19.57;15.30;;;13.70;99.90;;;;;;5117785;28;20441;-61
2022/10/15 00:56:19;;;;;;;20.10;16.10;;;13.60;99.90;;;;;;5117745;28;20477;-62
2022/10/15 00:58:47;;;;;;;22.17;15.80;;;13.60;99.90;;;;;;5118543;28;20815;-62
2022/10/15 01:01:14;;;;;;;20.00;15.00;;;13.50;99.90;;;;;;5117625;28;20468;-62
2022/10/15 01:03:42;;;;;;;19.17;16.80;;;13.40;99.90;;;;;;5117547;28;20812;-61
2022/10/15 01:06:10;;;;;;;23.00;16.80;;;13.40;99.90;;;;;;5117268;28;20776;-62
2022/10/15 01:08:37;;;;;;;22.90;16.70;;;13.30;99.90;;;;;;5116732;28;20943;-61
2022/10/15 01:11:20;;;;;;;21.90;16.50;;;13.30;99.90;;;;;;5118009;28;20803;-60
2022/10/15 01:13:53;;;;;;;20.10;16.53;;;13.30;99.90;;;;;;5118669;28;20440;-62
2022/10/15 01:16:28;;;;;;;22.87;18.40;;;13.20;99.90;;;;;;5118670;28;20461;-61
2022/10/15 01:18:59;;;;;;;23.80;18.47;;;13.10;99.90;;;;;;5118568;28;20963;-62
2022/10/15 01:21:34;;;;;;;23.57;17.03;;;13.10;99.90;;;;;;5117859;28;20437;-61
2022/10/15 01:24:42;;;;;;;26.93;19.00;;;13.00;99.90;;;;;;5117673;28;20433;-61
2022/10/15 01:27:25;;;;;;;27.00;18.40;;;13.00;99.90;;;;;;5117131;28;20791;-61
2022/10/15 01:30:22;;;;;;;21.70;18.10;;;13.00;99.90;;;;;;5116537;28;20469;-62
2022/10/15 01:33:07;;;;;;;24.90;18.33;;;12.90;99.90;;;;;;5117090;28;20445;-61
2022/10/15 01:35:43;;;;;;;25.13;18.00;;;12.90;99.90;;;;;;5117113;28;20467;-61
2022/10/15 01:38:20;;;;;;;25.70;17.70;;;12.80;99.90;;;;;;5115774;28;20430;-62
2022/10/15 01:40:54;;;;;;;25.67;18.80;;;12.80;99.90;;;;;;5116727;28;20437;-62
2022/10/15 01:43:29;;;;;;;27.47;19.30;;;12.70;99.90;;;;;;5116590;28;20452;-62
2022/10/15 01:45:58;;;;;;;28.77;19.50;;;12.70;99.90;;;;;;5116559;28;20445;-62
2022/10/15 01:48:29;;;;;;;27.07;19.70;;;12.70;99.90;;;;;;5116177;28;20441;-62
2022/10/15 01:51:00;;;;;;;27.77;19.73;;;12.60;99.90;;;;;;5116165;28;20797;-61
2022/10/15 01:53:29;;;;;;;31.07;21.10;;;12.60;99.90;;;;;;5116573;28;20430;-62
2022/10/15 01:55:58;;;;;;;29.67;20.53;;;12.50;99.90;;;;;;5116411;28;20481;-61
2022/10/15 01:58:26;;;;;;;32.70;22.23;;;12.50;99.90;;;;;;5115988;28;20445;-62
2022/10/15 02:00:54;;;;;;;27.80;19.43;;;12.50;99.90;;;;;;5116110;28;20808;-61
2022/10/15 02:03:21;;;;;;;29.47;19.90;;;12.50;99.90;;;;;;5115934;28;20446;-61
2022/10/15 02:05:54;;;;;;;25.40;18.53;;;12.50;99.90;;;;;;5115624;28;20448;-62
2022/10/15 02:08:31;;;;;;;28.53;20.23;;;12.40;99.90;;;;;;5115944;28;20426;-62
2022/10/15 02:11:03;;;;;;;30.37;19.10;;;12.30;99.90;;;;;;5115967;28;20429;-61
2022/10/15 02:13:38;;;;;;;33.00;19.40;;;12.30;99.90;;;;;;5115599;28;20422;-62
2022/10/15 02:16:12;;;;;;;29.80;20.57;;;12.20;99.90;;;;;;5116208;28;20461;-61
2022/10/15 02:18:42;;;;;;;32.40;20.03;;;12.10;99.90;;;;;;5116436;28;20865;-62
2022/10/15 02:21:16;;;;;;;26.97;18.80;;;12.10;99.90;;;;;;5115843;28;20426;-61
2022/10/15 02:23:49;;;;;;;26.97;18.23;;;12.10;99.90;;;;;;5115585;28;20972;-61
2022/10/15 02:26:17;;;;;;;29.37;19.10;;;12.00;99.90;;;;;;5116716;28;20426;-61
2022/10/15 02:28:50;;;;;;;29.90;19.40;;;11.90;99.90;;;;;;5115640;28;20473;-62
2022/10/15 02:31:20;;;;;;;32.60;19.60;;;11.80;99.90;;;;;;5115314;28;20430;-61
2022/10/15 02:33:47;;;;;;;29.20;19.60;;;11.80;99.90;;;;;;5116824;28;20441;-61
2022/10/15 02:36:18;;;;;;;29.80;19.23;;;11.70;99.90;;;;;;5115069;28;20807;-61
2022/10/15 02:38:45;;;;;;;29.33;20.00;;;11.70;99.90;;;;;;5115560;28;20464;-61
2022/10/15 02:41:13;;;;;;;28.60;19.77;;;11.70;99.90;;;;;;5115267;28;20449;-61
2022/10/15 02:43:40;;;;;;;28.23;18.57;;;11.60;99.90;;;;;;5115276;28;20492;-62
2022/10/15 02:46:09;;;;;;;32.90;20.40;;;11.60;99.90;;;;;;5115126;28;20438;-62
2022/10/15 02:48:36;;;;;;;27.57;18.77;;;11.60;99.90;;;;;;5114265;28;20462;-62
2022/10/15 02:51:03;;;;;;;30.10;19.63;;;11.60;99.90;;;;;;5117577;28;20448;-60
2022/10/15 02:53:31;;;;;;;29.80;19.13;;;11.60;99.90;;;;;;5124903;28;20937;-60
2022/10/15 02:55:58;;;;;;;33.60;19.90;;;11.60;99.90;;;;;;5124691;28;20480;-60
2022/10/15 02:58:25;;;;;;;35.00;19.53;;;11.50;99.90;;;;;;5122694;28;20441;-62
2022/10/15 03:00:52;;;;;;;29.43;19.07;;;11.50;99.90;;;;;;5122169;28;20445;-60
2022/10/15 03:03:19;;;;;;;30.57;19.30;;;11.40;99.90;;;;;;5120913;28;20929;-60
2022/10/15 03:05:46;;;;;;;30.07;19.87;;;11.40;99.90;;;;;;5123648;28;20448;-60
2022/10/15 03:08:12;;;;;;;34.60;20.63;;;11.30;99.90;;;;;;5125116;28;20437;-62
2022/10/15 03:10:41;;;;;;;31.37;20.00;;;11.30;99.90;;;;;;5124778;28;20437;-60
2022/10/15 03:13:07;;;;;;;33.47;20.70;;;11.30;99.90;;;;;;5125814;28;20476;-61
2022/10/15 03:15:36;;;;;;;35.07;19.47;;;11.30;99.90;;;;;;5125804;28;20474;-61
2022/10/15 03:18:03;;;;;;;31.97;21.03;;;11.30;99.90;;;;;;5123683;28;20437;-61
2022/10/15 03:20:30;;;;;;;29.67;19.43;;;11.20;99.90;;;;;;5116991;28;20461;-61
2022/10/15 03:22:57;;;;;;;29.60;19.47;;;11.20;99.90;;;;;;5114498;28;20486;-62
2022/10/15 03:25:24;;;;;;;33.40;20.00;;;11.20;99.90;;;;;;5114236;28;20456;-61
2022/10/15 03:27:52;;;;;;;33.30;19.27;;;11.20;99.90;;;;;;5116035;28;20830;-61
2022/10/15 03:30:19;;;;;;;33.47;20.47;;;11.10;99.90;;;;;;5114864;28;20477;-61
2022/10/15 03:32:47;;;;;;;37.63;21.20;;;11.10;99.90;;;;;;5113959;28;20460;-61
2022/10/15 03:35:14;;;;;;;33.20;20.13;;;11.10;99.90;;;;;;5113523;28;20948;-61
2022/10/15 03:37:41;;;;;;;32.97;20.07;;;11.00;99.90;;;;;;5114179;28;20453;-61
2022/10/15 03:40:09;;;;;;;36.37;21.27;;;11.00;99.90;;;;;;5113769;28;20544;-61
2022/10/15 03:42:35;;;;;;;41.83;21.60;;;11.00;99.90;;;;;;5113882;28;20461;-61
2022/10/15 03:45:04;;;;;;;37.83;19.80;;;11.00;99.90;;;;;;5113936;28;20445;-61
2022/10/15 03:47:31;;;;;;;37.97;21.03;;;11.00;99.90;;;;;;5113803;28;20787;-60
2022/10/15 03:49:58;;;;;;;38.40;22.40;;;11.00;99.90;;;;;;5113864;28;20461;-61
2022/10/15 03:52:25;;;;;;;37.17;23.03;;;11.00;99.90;;;;;;5113453;28;20442;-60
2022/10/15 03:54:51;;;;;;;43.20;23.70;;;11.00;99.90;;;;;;5113947;28;20463;-61
2022/10/15 03:57:18;;;;;;;44.20;22.70;;;10.90;99.90;;;;;;5113775;28;20491;-61
2022/10/15 03:59:45;;;;;;;41.43;24.30;;;10.90;99.90;;;;;;5113355;28;20462;-61
2022/10/15 04:02:13;;;;;;;41.67;22.87;;;11.00;99.90;;;;;;5113268;28;20445;-61
2022/10/15 04:04:40;;;;;;;39.00;21.77;;;11.00;99.90;;;;;;5113831;28;20548;-61
2022/10/15 04:10:22;;;;;;;43.20;24.33;;;10.90;99.90;;;;;;5149376;27;20896;-62
2022/10/15 04:12:49;;;;;;;46.00;24.10;;;11.00;99.90;;;;;;5131973;28;20437;-62
2022/10/15 04:15:16;;;;;;;45.17;24.17;;;11.00;99.90;;;;;;5131376;28;20436;-63
2022/10/15 04:17:43;;;;;;;43.97;23.17;;;11.00;99.90;;;;;;5131675;28;20451;-62
2022/10/15 04:20:10;;;;;;;42.57;23.17;;;11.10;99.90;;;;;;5131200;27;20453;-62
2022/10/15 04:22:37;;;;;;;37.63;21.53;;;11.10;99.90;;;;;;5131666;28;20437;-62
2022/10/15 04:25:05;;;;;;;47.70;25.30;;;11.10;99.90;;;;;;5131535;28;20432;-63
2022/10/15 04:27:33;;;;;;;39.40;21.67;;;11.10;99.90;;;;;;5131108;28;20433;-62
2022/10/15 04:30:00;;;;;;;42.83;24.27;;;11.00;99.90;;;;;;5130957;27;20999;-62
2022/10/15 04:32:27;;;;;;;51.47;26.77;;;11.00;99.90;;;;;;5131200;28;20452;-61
2022/10/15 04:34:54;;;;;;;51.63;26.83;;;11.00;99.90;;;;;;5131323;28;20451;-61
2022/10/15 04:37:20;;;;;;;53.00;24.93;;;11.00;99.90;;;;;;5131370;28;20451;-62
2022/10/15 04:39:47;;;;;;;42.73;21.83;;;11.00;99.90;;;;;;5131528;27;20849;-62
2022/10/15 04:42:14;;;;;;;44.77;24.87;;;11.00;99.90;;;;;;5131274;28;20445;-61
2022/10/15 04:44:42;;;;;;;55.70;26.30;;;11.00;99.90;;;;;;5131030;28;20493;-61
2022/10/15 04:47:09;;;;;;;49.10;25.87;;;11.00;99.90;;;;;;5130985;27;20820;-61
2022/10/15 04:49:36;;;;;;;44.43;24.33;;;11.00;99.90;;;;;;5130483;27;20480;-60
2022/10/15 04:52:02;;;;;;;44.00;24.03;;;11.00;99.90;;;;;;5131050;28;20455;-61
2022/10/15 04:54:29;;;;;;;44.23;24.53;;;11.00;99.90;;;;;;5130831;28;20447;-61
2022/10/15 04:56:56;;;;;;;58.47;26.07;;;11.00;99.90;;;;;;5130486;28;20952;-62
2022/10/15 04:59:23;;;;;;;47.73;25.90;;;11.00;99.90;;;;;;5130977;27;20461;-61
2022/10/15 05:01:51;;;;;;;47.90;25.00;;;11.00;99.90;;;;;;5130858;28;20455;-61
2022/10/15 05:04:18;;;;;;;47.40;26.17;;;11.00;99.90;;;;;;5131053;28;20440;-61
2022/10/15 05:06:44;;;;;;;55.13;26.63;;;10.90;99.90;;;;;;5130894;28;20455;-61
2022/10/15 05:09:11;;;;;;;54.47;27.63;;;10.90;99.90;;;;;;5130363;27;20498;-61
2022/10/15 05:11:38;;;;;;;52.70;25.60;;;10.90;99.90;;;;;;5131070;28;20445;-61
2022/10/15 05:14:06;;;;;;;43.97;24.70;;;10.90;99.90;;;;;;5130381;28;20442;-61
2022/10/15 05:16:33;;;;;;;54.10;25.67;;;10.90;99.90;;;;;;5130419;28;20535;-62
2022/10/15 05:19:04;;;;;;;48.53;25.17;;;11.00;99.90;;;;;;5130642;27;20460;-61
2022/10/15 05:21:32;;;;;;;58.67;26.63;;;10.90;99.90;;;;;;5118560;28;20425;-61
2022/10/15 05:23:59;;;;;;;51.17;24.50;;;10.90;99.90;;;;;;5125851;28;20441;-61
2022/10/15 05:26:28;;;;;;;53.17;26.30;;;10.90;99.90;;;;;;5120251;28;20449;-62
2022/10/15 05:28:56;;;;;;;48.30;22.83;;;10.90;99.90;;;;;;5119435;28;21059;-61
2022/10/15 05:31:24;;;;;;;55.73;26.20;;;10.90;99.90;;;;;;5120379;28;20447;-61
2022/10/15 05:33:53;;;;;;;52.73;25.00;;;10.90;99.90;;;;;;5118593;28;20464;-61
2022/10/15 05:36:24;;;;;;;66.00;28.00;;;10.90;99.90;;;;;;5117071;28;20441;-61
2022/10/15 05:38:53;;;;;;;53.90;27.80;;;11.00;99.90;;;;;;5115686;28;20470;-62
2022/10/15 05:41:20;;;;;;;54.87;25.90;;;11.00;99.90;;;;;;5115455;28;20465;-62
2022/10/15 05:43:47;;;;;;;57.20;26.30;;;11.00;99.90;;;;;;5116028;28;20445;-63
2022/10/15 05:46:14;;;;;;;63.03;27.27;;;11.00;99.90;;;;;;5116545;28;20441;-62
2022/10/15 05:48:41;;;;;;;61.20;27.80;;;11.00;99.90;;;;;;5117309;28;20466;-61
2022/10/15 05:51:12;;;;;;;70.10;29.70;;;11.00;99.90;;;;;;5117449;28;20449;-63
2022/10/15 05:53:42;;;;;;;56.13;24.87;;;11.00;99.90;;;;;;5117881;28;20437;-61
2022/10/15 05:56:09;;;;;;;55.40;24.40;;;11.00;99.90;;;;;;5116337;28;20445;-62
2022/10/15 05:58:36;;;;;;;56.27;27.37;;;11.00;99.90;;;;;;5115956;28;20465;-60
2022/10/15 06:01:05;;;;;;;59.77;27.17;;;11.00;99.90;;;;;;5115960;28;20440;-60
2022/10/15 06:03:32;;;;;;;71.00;27.97;;;11.00;99.90;;;;;;5121914;28;20449;-61
2022/10/15 06:05:59;;;;;;;72.47;28.97;;;11.10;99.90;;;;;;5118956;28;20498;-63
2022/10/15 06:08:27;;;;;;;69.87;30.70;;;11.10;99.90;;;;;;5116424;28;20460;-63
2022/10/15 06:10:57;;;;;;;54.97;25.17;;;11.20;99.90;;;;;;5120589;28;20473;-63
2022/10/15 06:13:24;;;;;;;60.87;25.67;;;11.20;99.90;;;;;;5125268;28;20433;-64
2022/10/15 06:15:51;;;;;;;66.97;29.40;;;11.30;99.90;;;;;;5122128;28;20473;-64
2022/10/15 06:18:18;;;;;;;60.37;29.07;;;11.30;99.90;;;;;;5120596;28;20790;-63
2022/10/15 06:20:50;;;;;;;62.93;28.67;;;11.40;99.90;;;;;;5122591;28;20437;-63
2022/10/15 06:23:17;;;;;;;59.43;26.73;;;11.50;99.90;;;;;;5101085;28;20434;-66
2022/10/15 06:25:44;;;;;;;65.23;28.10;;;11.50;99.90;;;;;;5114586;28;20442;-67
2022/10/15 06:28:12;;;;;;;52.47;25.47;;;11.60;99.90;;;;;;5124459;28;20445;-63
2022/10/15 06:30:39;;;;;;;57.63;26.67;;;11.60;99.90;;;;;;5125100;28;20473;-63
2022/10/15 06:33:05;;;;;;;50.03;25.27;;;11.70;99.90;;;;;;5125002;28;20449;-64
2022/10/15 06:35:34;;;;;;;50.60;25.10;;;11.70;99.90;;;;;;5126201;28;20537;-65
2022/10/15 06:38:01;;;;;;;46.70;24.60;;;11.80;99.90;;;;;;5124667;28;20449;-66
2022/10/15 06:40:28;;;;;;;50.10;25.50;;;11.90;99.90;;;;;;5126515;28;20453;-65
2022/10/15 06:42:55;;;;;;;45.63;24.30;;;12.00;99.90;;;;;;5128418;28;20446;-65
2022/10/15 06:45:24;;;;;;;47.70;27.87;;;12.00;99.90;;;;;;5123642;28;20484;-66
2022/10/15 06:47:50;;;;;;;49.00;27.10;;;12.00;99.90;;;;;;5125196;28;20933;-65
2022/10/15 06:50:17;;;;;;;44.73;24.27;;;12.10;99.90;;;;;;5124247;28;20513;-65
2022/10/15 06:52:44;;;;;;;45.53;24.93;;;12.20;99.90;;;;;;5125166;28;20525;-66
2022/10/15 06:55:11;;;;;;;44.30;25.00;;;12.30;99.90;;;;;;5127744;28;20468;-65
2022/10/15 06:57:38;;;;;;;41.77;26.50;;;12.40;99.90;;;;;;5121527;28;20451;-64
2022/10/15 07:00:05;;;;;;;44.03;26.57;;;12.50;99.90;;;;;;5117374;28;20464;-64
2022/10/15 07:02:35;;;;;;;46.40;25.10;;;12.60;99.90;;;;;;5116526;28;20798;-63
2022/10/15 07:05:02;;;;;;;40.47;24.60;;;12.60;99.90;;;;;;5117833;28;20496;-65
2022/10/15 07:07:28;;;;;;;34.67;21.90;;;12.70;99.90;;;;;;5115321;28;20960;-65
2022/10/15 07:09:55;;;;;;;36.37;21.63;;;12.80;99.90;;;;;;5114055;28;20503;-65
2022/10/15 07:12:22;;;;;;;38.47;21.80;;;12.80;99.90;;;;;;5115464;28;20522;-67
2022/10/15 07:14:49;;;;;;;33.67;19.97;;;12.90;99.90;;;;;;5115087;28;20970;-66
2022/10/15 07:17:16;;;;;;;31.93;19.70;;;13.00;99.90;;;;;;5114873;28;20441;-66
2022/10/15 07:19:44;;;;;;;30.83;20.13;;;13.10;99.90;;;;;;5115215;28;20457;-67
2022/10/15 07:22:12;;;;;;;27.70;20.37;;;13.20;99.90;;;;;;5115095;28;20446;-66
2022/10/15 07:24:38;;;;;;;33.90;22.70;;;13.20;99.90;;;;;;5116424;28;20461;-67
2022/10/15 07:27:05;;;;;;;30.57;19.30;;;13.30;99.90;;;;;;5114474;28;20447;-64
2022/10/15 07:29:32;;;;;;;27.83;19.47;;;13.30;99.90;;;;;;5114699;28;20886;-63
2022/10/15 07:31:59;;;;;;;30.33;19.70;;;13.30;99.90;;;;;;5114988;28;20453;-64
2022/10/15 07:34:26;;;;;;;30.27;21.00;;;13.40;99.90;;;;;;5114601;28;20457;-64
2022/10/15 07:36:54;;;;;;;29.97;21.43;;;13.50;99.90;;;;;;5114205;28;20445;-67
2022/10/15 07:39:21;;;;;;;29.97;19.03;;;13.60;99.90;;;;;;5116771;28;20573;-65
2022/10/15 07:41:48;;;;;;;29.37;20.67;;;13.60;99.90;;;;;;5116059;28;20445;-65
2022/10/15 07:44:15;;;;;;;27.70;20.03;;;13.70;99.90;;;;;;5116826;28;20452;-65
2022/10/15 07:46:42;;;;;;;30.83;20.97;;;13.80;99.90;;;;;;5117943;28;20441;-64
2022/10/15 07:49:10;;;;;;;29.97;19.63;;;13.90;99.90;;;;;;5118056;28;20516;-64
2022/10/15 07:51:37;;;;;;;25.30;17.43;;;14.00;99.90;;;;;;5117592;28;20449;-65
2022/10/15 07:54:05;;;;;;;27.87;20.63;;;14.10;99.90;;;;;;5116447;28;20446;-63
2022/10/15 07:56:32;;;;;;;26.60;19.50;;;14.20;99.90;;;;;;5117141;28;20531;-65
2022/10/15 07:58:59;;;;;;;27.73;20.43;;;14.30;99.90;;;;;;5117342;28;20980;-65
2022/10/15 08:01:26;;;;;;;32.07;20.27;;;14.50;99.90;;;;;;5118355;28;20452;-65
2022/10/15 08:03:52;;;;;;;29.10;20.50;;;14.50;99.90;;;;;;5119758;28;20437;-68
2022/10/15 08:06:19;;;;;;;27.70;19.60;;;14.60;99.90;;;;;;5116826;28;20889;-68
2022/10/15 08:08:46;;;;;;;28.27;20.27;;;14.70;99.90;;;;;;5117586;28;20469;-67
2022/10/15 08:11:17;;;;;;;25.60;18.57;;;14.80;99.90;;;;;;5116023;28;21010;-69
2022/10/15 08:13:45;;;;;;;27.07;18.20;;;14.80;99.90;;;;;;5116776;28;20440;-67
2022/10/15 08:16:15;;;;;;;26.93;19.33;;;14.80;99.90;;;;;;5116924;28;20818;-67
2022/10/15 08:18:43;;;;;;;27.17;18.73;;;14.90;99.90;;;;;;5115019;28;20462;-67
2022/10/15 08:21:11;;;;;;;28.27;20.47;;;15.00;99.90;;;;;;5114388;28;20441;-67
2022/10/15 08:23:38;;;;;;;29.53;19.90;;;15.10;99.90;;;;;;5114228;28;20445;-68
2022/10/15 08:26:05;;;;;;;31.90;21.33;;;15.40;99.90;;;;;;5114316;28;20441;-67
2022/10/15 08:28:34;;;;;;;29.53;20.03;;;15.50;99.90;;;;;;5114299;28;20465;-68
2022/10/15 08:31:02;;;;;;;28.40;20.20;;;15.50;99.90;;;;;;5113955;28;21057;-68
2022/10/15 08:33:29;;;;;;;29.97;21.93;;;15.60;99.90;;;;;;5113834;28;20445;-67
2022/10/15 08:35:57;;;;;;;31.03;21.30;;;15.70;99.90;;;;;;5113958;28;20438;-68
2022/10/15 08:38:24;;;;;;;28.63;20.63;;;15.80;99.90;;;;;;5114017;28;20441;-68
2022/10/15 08:40:53;;;;;;;29.47;19.27;;;15.90;99.90;;;;;;5114331;28;20448;-67
2022/10/15 08:43:23;;;;;;;26.97;20.83;;;15.90;99.90;;;;;;5114099;28;20537;-68
2022/10/15 08:45:55;;;;;;;27.23;18.67;;;15.90;99.90;;;;;;5113918;28;20435;-67
2022/10/15 08:48:30;;;;;;;33.37;21.67;;;15.90;99.90;;;;;;5114002;28;20483;-67
2022/10/15 08:51:02;;;;;;;27.07;20.10;;;15.90;99.90;;;;;;5113645;28;20475;-67
2022/10/15 08:53:33;;;;;;;25.50;19.17;;;16.00;99.90;;;;;;5113467;28;20955;-67
2022/10/15 08:56:05;;;;;;;26.00;19.73;;;16.10;99.90;;;;;;5115534;28;20429;-68
2022/10/15 08:58:45;;;;;;;27.13;19.03;;;16.20;99.90;;;;;;5117837;28;20534;-68
2022/10/15 09:01:21;;;;;;;26.50;18.70;;;16.40;99.90;;;;;;5117819;28;20426;-66
2022/10/15 09:03:58;;;;;;;26.00;18.07;;;16.40;99.90;;;;;;5117952;28;20591;-67
2022/10/15 09:06:28;;;;;;;24.80;18.37;;;16.40;99.90;;;;;;5118783;28;20480;-67
2022/10/15 09:09:06;;;;;;;23.70;17.67;;;16.40;99.90;;;;;;5117657;28;20476;-68
2022/10/15 09:11:44;;;;;;;23.50;18.23;;;16.50;99.90;;;;;;5117789;28;20972;-68
2022/10/15 09:14:14;;;;;;;25.40;17.93;;;16.60;99.90;;;;;;5118468;28;20494;-67
2022/10/15 09:16:46;;;;;;;24.73;16.93;;;16.70;99.90;;;;;;5118144;28;20426;-68
2022/10/15 09:19:16;;;;;;;21.70;17.47;;;16.70;99.90;;;;;;5117393;28;20561;-67
2022/10/15 09:21:45;;;;;;;24.37;18.23;;;16.70;99.90;;;;;;5117541;28;20425;-67
2022/10/15 09:24:17;;;;;;;23.03;15.97;;;16.80;99.90;;;;;;5117642;28;20562;-68
2022/10/15 09:26:54;;;;;;;23.40;18.53;;;16.90;99.90;;;;;;5116643;28;20429;-69
2022/10/15 09:29:27;;;;;;;24.00;18.73;;;17.00;99.90;;;;;;5130982;22;20585;-62
2022/10/15 09:32:05;;;;;;;23.97;17.53;;;17.10;99.90;;;;;;5075043;28;20847;-62
2022/10/15 09:34:37;;;;;;;22.93;17.70;;;17.20;99.90;;;;;;5075504;28;20436;-62
2022/10/15 09:37:11;;;;;;;17.90;14.50;;;17.30;99.90;;;;;;5076017;28;20447;-61
2022/10/15 09:40:02;;;;;;;23.30;17.87;;;17.40;99.90;;;;;;5076373;28;20466;-63
2022/10/15 09:42:31;;;;;;;21.03;15.23;;;17.50;99.90;;;;;;5076705;28;20438;-62
2022/10/15 09:45:02;;;;;;;19.20;15.77;;;17.70;99.90;;;;;;5076308;28;20450;-62
2022/10/15 09:47:32;;;;;;;17.57;14.97;;;17.80;99.90;;;;;;5076196;28;20452;-62
2022/10/15 09:49:59;;;;;;;19.67;15.87;;;17.90;99.90;;;;;;5076735;28;20459;-62
2022/10/15 09:52:39;;;;;;;16.93;14.50;;;18.00;99.90;;;;;;5076145;28;20783;-61
2022/10/15 09:55:18;;;;;;;22.77;17.53;;;18.10;99.90;;;;;;5076429;28;20431;-61
2022/10/15 09:57:51;;;;;;;19.00;14.77;;;18.20;99.90;;;;;;5077745;28;20431;-62
2022/10/15 10:00:19;;;;;;;18.60;14.77;;;18.20;99.90;;;;;;5076410;28;20469;-62
2022/10/15 10:03:05;;;;;;;19.53;16.00;;;18.20;99.90;;;;;;5076703;28;20451;-62
2022/10/15 10:05:37;;;;;;;18.90;14.70;;;18.20;99.90;;;;;;5080252;28;20434;-62
2022/10/15 10:08:09;;;;;;;17.40;15.53;;;18.20;99.90;;;;;;5078562;28;20458;-63
2022/10/15 10:10:37;;;;;;;16.53;14.90;;;18.20;99.90;;;;;;5077649;28;20486;-62
2022/10/15 10:13:18;;;;;;;16.00;13.57;;;18.30;99.90;;;;;;5078617;28;20465;-62
2022/10/15 10:15:46;;;;;;;14.70;13.20;;;18.40;99.90;;;;;;5076701;28;20965;-62
2022/10/15 10:18:20;;;;;;;17.00;13.27;;;18.60;99.90;;;;;;5076593;28;20809;-62
2022/10/15 10:20:57;;;;;;;16.13;12.30;;;18.70;99.90;;;;;;5076037;28;20819;-62
2022/10/15 10:23:30;;;;;;;13.13;11.20;;;18.90;99.90;;;;;;5075630;28;20432;-62
2022/10/15 10:25:59;;;;;;;10.87;9.77;;;19.00;99.90;;;;;;5075054;28;20442;-63
2022/10/15 10:28:31;;;;;;;10.20;9.17;;;19.00;99.90;;;;;;5075046;28;20500;-62
2022/10/15 10:31:07;;;;;;;10.13;9.00;;;18.90;99.90;;;;;;5074565;28;20490;-63
2022/10/15 10:33:43;;;;;;;10.80;9.70;;;18.90;99.90;;;;;;5075079;28;20447;-62
2022/10/15 10:36:21;;;;;;;9.17;8.10;;;19.00;99.90;;;;;;5074524;28;20978;-63
2022/10/15 10:38:58;;;;;;;7.97;7.17;;;19.20;99.90;;;;;;5074311;28;20432;-62
2022/10/15 10:41:47;;;;;;;8.37;7.50;;;19.40;99.90;;;;;;5075107;28;20488;-62
2022/10/15 10:44:21;;;;;;;7.70;6.93;;;19.60;99.90;;;;;;5074379;28;20428;-62
2022/10/15 10:47:02;;;;;;;8.10;7.30;;;19.60;99.90;;;;;;5074298;28;20431;-62
2022/10/15 10:49:36;;;;;;;7.43;6.60;;;19.70;99.90;;;;;;5074221;28;20467;-62
2022/10/15 10:52:03;;;;;;;7.67;6.63;;;19.70;99.90;;;;;;5074895;28;20464;-63
2022/10/15 10:54:33;;;;;;;9.20;7.57;;;19.60;99.30;;;;;;5074258;28;20444;-61
2022/10/15 10:57:01;;;;;;;7.80;7.00;;;19.50;98.80;;;;;;5074737;28;20440;-62
2022/10/15 10:59:32;;;;;;;8.60;7.80;;;19.40;98.40;;;;;;5074274;28;20495;-62
2022/10/15 11:01:59;;;;;;;7.53;6.83;;;19.40;98.20;;;;;;5074415;28;20425;-61
2022/10/15 11:04:29;;;;;;;10.33;7.87;;;19.50;97.80;;;;;;5073707;28;20451;-63
2022/10/15 11:07:03;;;;;;;9.30;8.10;;;19.60;97.60;;;;;;5073245;28;20953;-62
2022/10/15 11:09:46;;;;;;;7.70;7.00;;;19.70;97.20;;;;;;5073546;28;21001;-62
2022/10/15 11:12:36;;;;;;;8.10;7.30;;;19.80;96.70;;;;;;5073881;28;20467;-61
2022/10/15 11:15:17;;;;;;;8.73;7.73;;;19.80;96.20;;;;;;5073906;28;20432;-63
2022/10/15 11:17:51;;;;;;;8.37;7.57;;;19.80;96.00;;;;;;5073234;28;20545;-62
2022/10/15 11:20:26;;;;;;;8.47;7.63;;;19.70;95.90;;;;;;5073374;28;20970;-62
2022/10/15 11:23:08;;;;;;;9.00;8.10;;;19.60;95.90;;;;;;5073249;28;20431;-62
2022/10/15 11:25:43;;;;;;;9.83;8.63;;;19.40;96.20;;;;;;5073300;28;20914;-62
2022/10/15 11:28:34;;;;;;;8.80;7.80;;;19.30;96.60;;;;;;5073423;28;20431;-62
2022/10/15 11:31:10;;;;;;;11.40;8.20;;;19.30;96.60;;;;;;5074062;28;20491;-61
2022/10/15 11:33:51;;;;;;;9.83;8.43;;;19.40;96.50;;;;;;5073434;28;20436;-61
2022/10/15 11:36:35;;;;;;;10.90;8.10;;;19.50;96.10;;;;;;5073854;28;20436;-62
2022/10/15 11:39:28;;;;;;;9.00;8.10;;;19.50;95.70;;;;;;5073522;28;20427;-62
2022/10/15 11:42:04;;;;;;;8.30;7.50;;;19.50;95.30;;;;;;5073239;28;20439;-61
2022/10/15 11:44:45;;;;;;;9.93;7.73;;;19.60;95.20;;;;;;5073344;28;20894;-62
2022/10/15 11:47:26;;;;;;;9.07;7.77;;;19.60;95.00;;;;;;5073493;28;20446;-62
2022/10/15 11:50:03;;;;;;;7.80;7.00;;;19.60;94.70;;;;;;5073187;28;20471;-62
2022/10/15 11:52:43;;;;;;;8.00;7.13;;;19.60;94.70;;;;;;5073563;28;20470;-62
2022/10/15 11:55:15;;;;;;;7.67;6.90;;;19.40;94.50;;;;;;5073088;28;20430;-62
2022/10/15 11:57:44;;;;;;;12.10;8.87;;;19.20;94.50;;;;;;5072766;28;20787;-62
2022/10/15 12:00:22;;;;;;;19.13;17.13;;;19.00;94.90;;;;;;5073176;28;20463;-62
2022/10/15 12:02:50;;;;;;;15.60;14.00;;;19.00;95.20;;;;;;5073727;28;20427;-62
2022/10/15 12:05:19;;;;;;;16.87;15.13;;;19.10;95.20;;;;;;5073205;28;20505;-62
2022/10/15 12:07:48;;;;;;;5.37;4.70;;;19.20;95.10;;;;;;5074156;28;20450;-62
2022/10/15 12:10:35;;;;;;;7.00;5.77;;;19.20;95.00;;;;;;5074331;28;20482;-62
2022/10/15 12:13:08;;;;;;;5.97;5.37;;;19.30;94.80;;;;;;5073954;28;20416;-63
2022/10/15 12:15:44;;;;;;;7.60;4.70;;;19.30;94.70;;;;;;5073390;28;20907;-63
2022/10/15 12:18:20;;;;;;;6.03;4.53;;;19.40;94.60;;;;;;5073266;28;20959;-63
2022/10/15 12:20:47;;;;;;;4.80;4.40;;;19.40;94.40;;;;;;5072898;28;20459;-61
2022/10/15 12:23:25;;;;;;;4.83;4.33;;;19.60;94.10;;;;;;5073100;28;20452;-62
2022/10/15 12:25:53;;;;;;;4.97;4.40;;;19.90;93.80;;;;;;5072739;28;20450;-62
2022/10/15 12:28:23;;;;;;;4.50;4.10;;;20.10;93.00;;;;;;5072619;28;20458;-61
2022/10/15 12:31:01;;;;;;;4.53;4.13;;;20.30;92.30;;;;;;5074090;28;20573;-62
2022/10/15 12:33:36;;;;;;;3.90;3.60;;;20.30;91.70;;;;;;5076944;28;20434;-62
2022/10/15 12:36:08;;;;;;;5.70;4.30;;;20.20;91.60;;;;;;5076880;28;20443;-61
2022/10/15 12:38:38;;;;;;;7.37;3.90;;;20.10;91.40;;;;;;5076695;28;20937;-62
2022/10/15 12:41:09;;;;;;;4.80;4.30;;;20.10;91.20;;;;;;5076286;28;20459;-62
2022/10/15 12:43:40;;;;;;;4.90;4.30;;;20.00;91.10;;;;;;5076552;28;20427;-62
2022/10/15 12:46:10;;;;;;;4.60;4.00;;;20.00;91.00;;;;;;5076014;28;20494;-62
2022/10/15 12:48:40;;;;;;;4.47;4.07;;;20.00;90.80;;;;;;5075884;28;20504;-62
2022/10/15 12:51:31;;;;;;;4.57;4.17;;;20.00;90.50;;;;;;5076013;28;20566;-62